createdAt,value
2019-02-21T00:00:49.405Z,9.70
2019-02-21T00:03:19.183Z,10.43
2019-02-21T00:05:49.016Z,12.58
2019-02-21T00:08:18.777Z,11.22
2019-02-21T00:10:48.760Z,11.53
2019-02-21T00:13:18.588Z,13.50
2019-02-21T00:15:48.457Z,13.30
2019-02-21T00:18:18.406Z,12.37
2019-02-21T00:20:48.168Z,12.73
2019-02-21T00:23:18.005Z,12.80
2019-02-21T00:25:47.813Z,13.43
2019-02-21T00:28:17.979Z,13.15
2019-02-21T00:30:48.044Z,13.15
2019-02-21T00:33:17.947Z,12.23
2019-02-21T00:35:47.815Z,12.47
2019-02-21T00:38:17.606Z,14.10
2019-02-21T00:40:47.471Z,12.33
2019-02-21T00:43:17.233Z,13.25
2019-02-21T00:45:46.838Z,11.83
2019-02-21T00:48:16.655Z,13.45
2019-02-21T00:50:46.550Z,13.83
2019-02-21T00:53:16.149Z,11.55
2019-02-21T00:55:45.854Z,13.22
2019-02-21T00:58:15.514Z,12.73
2019-02-21T01:00:46.792Z,11.25
2019-02-21T01:03:16.646Z,12.55
2019-02-21T01:05:46.402Z,12.07
2019-02-21T01:08:16.207Z,12.82
2019-02-21T01:10:52.948Z,12.03
2019-02-21T01:13:22.874Z,13.80
2019-02-21T01:15:53.196Z,10.65
2019-02-21T01:18:25.951Z,12.00
2019-02-21T01:20:56.968Z,11.63
2019-02-21T01:23:26.883Z,10.90
2019-02-21T01:25:56.700Z,11.05
2019-02-21T01:28:26.421Z,11.57
2019-02-21T01:30:57.141Z,12.45
2019-02-21T01:33:27.297Z,10.30
2019-02-21T01:35:57.367Z,11.15
2019-02-21T01:38:27.256Z,11.40
2019-02-21T01:40:57.127Z,11.43
2019-02-21T01:43:27.038Z,12.53
2019-02-21T01:45:57.072Z,11.83
2019-02-21T01:48:29.505Z,11.18
2019-02-21T01:50:58.621Z,13.35
2019-02-21T01:53:28.561Z,11.83
2019-02-21T01:55:58.841Z,11.08
2019-02-21T01:58:28.981Z,10.90
2019-02-21T02:01:07.888Z,10.18
2019-02-21T02:03:30.504Z,11.00
2019-02-21T02:06:00.270Z,10.50
2019-02-21T02:08:30.188Z,11.10
2019-02-21T02:11:00.177Z,10.65
2019-02-21T02:13:29.911Z,12.37
2019-02-21T02:15:59.953Z,13.00
2019-02-21T02:18:29.962Z,13.43
2019-02-21T02:20:59.972Z,12.53
2019-02-21T02:23:29.914Z,11.53
2019-02-21T02:25:59.635Z,13.68
2019-02-21T02:28:29.675Z,14.55
2019-02-21T02:30:59.900Z,13.53
2019-02-21T02:33:33.097Z,14.70
2019-02-21T02:36:03.279Z,13.50
2019-02-21T02:38:32.854Z,14.38
2019-02-21T02:41:02.584Z,13.50
2019-02-21T02:43:32.494Z,15.80
2019-02-21T02:46:02.724Z,17.05
2019-02-21T02:48:32.583Z,15.72
2019-02-21T02:51:02.368Z,16.95
2019-02-21T02:53:32.400Z,16.05
2019-02-21T02:56:02.131Z,15.23
2019-02-21T02:58:31.887Z,17.73
2019-02-21T03:01:01.980Z,18.55
2019-02-21T03:03:31.727Z,18.70
2019-02-21T03:06:01.754Z,18.48
2019-02-21T03:08:31.625Z,18.77
2019-02-21T03:11:01.196Z,18.57
2019-02-21T03:13:30.968Z,18.90
2019-02-21T03:16:00.961Z,19.60
2019-02-21T03:18:30.670Z,18.75
2019-02-21T03:21:00.497Z,19.92
2019-02-21T03:23:32.040Z,20.80
2019-02-21T03:26:01.917Z,19.98
2019-02-21T03:28:31.877Z,20.70
2019-02-21T03:31:01.768Z,18.90
2019-02-21T03:33:31.704Z,18.48
2019-02-21T03:36:01.705Z,20.35
2019-02-21T03:38:35.196Z,19.77
2019-02-21T03:41:02.980Z,21.15
2019-02-21T03:43:33.906Z,23.60
2019-02-21T03:46:03.993Z,23.20
2019-02-21T03:48:33.867Z,20.15
2019-02-21T03:51:04.106Z,20.23
2019-02-21T03:53:34.348Z,22.58
2019-02-21T03:56:04.204Z,22.85
2019-02-21T03:58:33.973Z,21.42
2019-02-21T04:01:04.255Z,22.82
2019-02-21T04:03:34.903Z,22.50
2019-02-21T04:06:04.878Z,20.62
2019-02-21T04:08:34.798Z,22.45
2019-02-21T04:11:05.111Z,22.45
2019-02-21T04:13:34.974Z,24.25
2019-02-21T04:16:05.143Z,23.30
2019-02-21T04:18:37.934Z,22.17
2019-02-21T04:21:09.171Z,24.02
2019-02-21T04:23:40.510Z,23.90
2019-02-21T04:26:10.386Z,23.20
2019-02-21T04:28:40.361Z,23.45
2019-02-21T04:31:10.197Z,24.30
2019-02-21T04:33:41.200Z,23.22
2019-02-21T04:36:10.981Z,23.83
2019-02-21T04:38:40.729Z,26.82
2019-02-21T04:41:10.622Z,24.05
2019-02-21T04:43:40.769Z,26.23
2019-02-21T04:46:10.802Z,27.22
2019-02-21T04:48:40.519Z,27.75
2019-02-21T04:51:10.453Z,26.20
2019-02-21T04:53:40.190Z,28.45
2019-02-21T04:56:35.984Z,27.58
2019-02-21T04:59:15.804Z,27.22
2019-02-21T05:01:48.491Z,27.62
2019-02-21T05:04:29.954Z,28.52
2019-02-21T05:07:25.897Z,26.30
2019-02-21T05:10:36.843Z,28.73
2019-02-21T05:14:08.698Z,29.02
2019-02-21T05:17:07.848Z,28.38
2019-02-21T05:19:59.837Z,31.50
2019-02-21T05:26:49.220Z,29.42
2019-02-21T05:34:52.745Z,32.00
2019-02-21T05:48:24.099Z,31.65
2019-02-21T05:51:33.516Z,32.13
2019-02-21T05:54:26.478Z,35.28
2019-02-21T05:57:19.996Z,32.28
2019-02-21T06:00:19.458Z,33.65
2019-02-21T06:03:16.799Z,34.70
2019-02-21T06:06:02.900Z,33.65
2019-02-21T06:08:50.623Z,33.38
2019-02-21T06:11:34.965Z,34.80
2019-02-21T06:14:26.310Z,35.00
2019-02-21T06:17:21.047Z,39.78
2019-02-21T06:19:56.141Z,34.00
2019-02-21T06:23:02.797Z,34.88
2019-02-21T06:25:52.997Z,34.58
2019-02-21T06:28:41.104Z,31.25
2019-02-21T06:31:14.752Z,31.20
2019-02-21T06:33:45.033Z,31.75
2019-02-21T06:36:18.248Z,35.68
2019-02-21T06:38:48.169Z,36.03
2019-02-21T06:41:18.210Z,34.43
2019-02-21T06:43:48.241Z,36.55
2019-02-21T06:46:18.125Z,34.67
2019-02-21T06:48:51.561Z,33.23
2019-02-21T06:51:21.536Z,34.60
2019-02-21T06:53:53.465Z,37.03
2019-02-21T06:56:23.228Z,34.73
2019-02-21T06:58:52.913Z,35.85
2019-02-21T07:01:28.948Z,33.83
2019-02-21T07:03:55.861Z,35.58
2019-02-21T07:06:31.874Z,34.83
2019-02-21T07:08:59.737Z,35.65
2019-02-21T07:11:29.057Z,33.65
2019-02-21T07:13:58.796Z,36.05
2019-02-21T07:16:28.616Z,33.65
2019-02-21T07:18:58.489Z,31.35
2019-02-21T07:21:28.227Z,32.70
2019-02-21T07:23:57.898Z,31.30
2019-02-21T07:26:27.747Z,32.78
2019-02-21T07:28:58.385Z,31.00
2019-02-21T07:31:29.391Z,31.23
2019-02-21T07:34:01.715Z,33.45
2019-02-21T07:36:31.748Z,30.80
2019-02-21T07:39:16.260Z,29.75
2019-02-21T07:41:33.086Z,31.55
2019-02-21T07:44:12.095Z,30.70
2019-02-21T07:46:36.565Z,33.08
2019-02-21T07:49:06.281Z,31.60
2019-02-21T07:51:36.201Z,31.37
2019-02-21T07:54:06.126Z,31.45
2019-02-21T07:56:42.110Z,31.40
2019-02-21T07:59:07.454Z,29.50
2019-02-21T08:01:37.367Z,30.40
2019-02-21T08:04:07.352Z,30.25
2019-02-21T08:06:37.393Z,30.80
2019-02-21T08:09:09.473Z,30.43
2019-02-21T08:11:39.598Z,32.15
2019-02-21T08:14:09.332Z,32.30
2019-02-21T08:16:39.016Z,33.05
2019-02-21T08:19:08.763Z,30.92
2019-02-21T08:21:38.485Z,32.90
2019-02-21T08:24:08.337Z,33.38
2019-02-21T08:26:38.086Z,31.93
2019-02-21T08:29:07.765Z,31.97
2019-02-21T08:31:37.541Z,32.58
2019-02-21T08:34:28.881Z,34.10
2019-02-21T08:36:58.800Z,33.05
2019-02-21T08:39:28.560Z,33.83
2019-02-21T08:41:58.505Z,30.17
2019-02-21T08:44:29.026Z,35.38
2019-02-21T08:46:59.007Z,32.08
2019-02-21T08:49:31.054Z,34.90
2019-02-21T08:52:00.943Z,36.17
2019-02-21T08:54:30.618Z,34.98
2019-02-21T08:57:00.414Z,32.48
2019-02-21T08:59:30.368Z,33.70
2019-02-21T09:02:00.064Z,33.30
2019-02-21T09:04:30.043Z,32.13
2019-02-21T09:06:59.731Z,32.93
2019-02-21T09:09:29.648Z,33.05
2019-02-21T09:11:59.547Z,34.15
2019-02-21T09:14:29.330Z,33.15
2019-02-21T09:16:59.147Z,33.15
2019-02-21T09:19:30.616Z,32.15
2019-02-21T09:22:00.510Z,33.73
2019-02-21T09:24:39.185Z,31.37
2019-02-21T09:27:01.773Z,33.05
2019-02-21T09:29:31.488Z,29.98
2019-02-21T09:32:01.189Z,31.48
2019-02-21T09:34:30.786Z,30.27
2019-02-21T09:37:00.755Z,31.37
2019-02-21T09:39:30.528Z,28.40
2019-02-21T09:42:00.086Z,31.55
2019-02-21T09:44:29.988Z,30.25
2019-02-21T09:46:59.754Z,28.80
2019-02-21T09:49:29.401Z,28.00
2019-02-21T09:51:59.076Z,28.23
2019-02-21T09:54:28.742Z,30.45
2019-02-21T09:56:58.376Z,30.48
2019-02-21T09:59:28.838Z,29.10
2019-02-21T10:01:58.574Z,28.50
2019-02-21T10:04:32.042Z,30.65
2019-02-21T10:06:59.509Z,27.05
2019-02-21T10:09:29.070Z,28.23
2019-02-21T10:11:59.213Z,27.80
2019-02-21T10:14:28.883Z,27.60
2019-02-21T10:16:58.597Z,29.15
2019-02-21T10:19:28.255Z,26.02
2019-02-21T10:21:57.915Z,29.05
2019-02-21T10:24:27.550Z,28.27
2019-02-21T10:26:57.288Z,26.45
2019-02-21T10:29:29.695Z,29.50
2019-02-21T10:31:58.275Z,24.45
2019-02-21T10:34:30.031Z,26.48
2019-02-21T10:36:59.750Z,24.92
2019-02-21T10:39:29.472Z,27.10
2019-02-21T10:41:59.237Z,25.17
2019-02-21T10:44:29.503Z,24.90
2019-02-21T10:46:58.506Z,27.35
2019-02-21T10:49:27.624Z,23.95
2019-02-21T10:51:57.454Z,25.77
2019-02-21T10:54:27.231Z,25.72
2019-02-21T10:56:57.052Z,25.23
2019-02-21T10:59:26.977Z,26.10
2019-02-21T11:01:56.860Z,24.57
2019-02-21T11:04:28.362Z,24.80
2019-02-21T11:06:58.556Z,24.92
2019-02-21T11:09:28.439Z,21.50
2019-02-21T11:12:05.270Z,26.85
2019-02-21T11:14:35.227Z,22.42
2019-02-21T11:17:05.249Z,25.80
2019-02-21T11:19:34.912Z,22.98
2019-02-21T11:22:04.538Z,20.37
2019-02-21T11:24:34.200Z,22.17
2019-02-21T11:27:03.977Z,24.40
2019-02-21T11:29:33.706Z,19.07
2019-02-21T11:32:04.419Z,20.32
2019-02-21T11:34:34.297Z,19.27
2019-02-21T11:37:04.147Z,22.52
2019-02-21T11:39:33.866Z,22.77
2019-02-21T11:42:03.537Z,21.85
2019-02-21T11:44:33.242Z,21.97
2019-02-21T11:47:02.904Z,21.33
2019-02-21T11:49:32.811Z,21.20
2019-02-21T11:52:09.863Z,18.90
2019-02-21T11:54:33.912Z,22.20
2019-02-21T11:57:03.756Z,21.17
2019-02-21T11:59:33.475Z,22.20
2019-02-21T12:02:03.212Z,20.85
2019-02-21T12:04:32.906Z,19.98
2019-02-21T12:07:02.789Z,18.20
2019-02-21T12:09:32.434Z,19.02
2019-02-21T12:12:02.245Z,19.30
2019-02-21T12:14:32.056Z,18.85
2019-02-21T12:17:01.867Z,18.30
2019-02-21T12:19:34.600Z,16.35
2019-02-21T12:22:04.308Z,15.10
2019-02-21T12:24:34.035Z,17.65
2019-02-21T12:27:03.706Z,16.42
2019-02-21T12:29:33.453Z,16.62
2019-02-21T12:32:03.454Z,15.78
2019-02-21T12:34:33.210Z,16.70
2019-02-21T12:37:02.893Z,16.73
2019-02-21T12:39:32.734Z,15.95
2019-02-21T12:42:02.399Z,15.25
2019-02-21T12:44:32.063Z,16.52
2019-02-21T12:47:01.823Z,16.48
2019-02-21T12:49:32.757Z,15.63
2019-02-21T12:52:02.693Z,17.12
2019-02-21T12:54:32.390Z,16.02
2019-02-21T12:57:02.039Z,15.90
2019-02-21T12:59:31.755Z,14.50
2019-02-21T13:02:01.539Z,14.65
2019-02-21T13:04:33.350Z,14.70
2019-02-21T13:07:02.457Z,16.23
2019-02-21T13:09:51.045Z,14.63
2019-02-21T13:12:20.904Z,14.38
2019-02-21T13:14:50.672Z,13.93
2019-02-21T13:17:20.588Z,13.45
2019-02-21T13:19:50.363Z,13.80
2019-02-21T13:22:23.672Z,13.85
2019-02-21T13:24:53.427Z,12.50
2019-02-21T13:27:23.265Z,11.65
2019-02-21T13:29:54.648Z,11.70
2019-02-21T13:32:24.606Z,11.78
2019-02-21T13:34:54.271Z,11.78
2019-02-21T13:37:28.594Z,11.50
2019-02-21T13:39:55.516Z,11.18
2019-02-21T13:42:25.660Z,12.37
2019-02-21T13:44:55.437Z,11.85
2019-02-21T13:47:25.155Z,10.95
2019-02-21T13:49:55.055Z,12.93
2019-02-21T13:52:24.995Z,12.50
2019-02-21T13:54:54.845Z,11.20
2019-02-21T13:57:24.710Z,11.15
2019-02-21T13:59:54.430Z,10.28
2019-02-21T14:02:24.081Z,12.73
2019-02-21T14:04:53.701Z,11.43
2019-02-21T14:07:23.460Z,11.10
2019-02-21T14:09:53.287Z,12.25
2019-02-21T14:12:26.283Z,11.60
2019-02-21T14:15:01.235Z,12.90
2019-02-21T14:17:31.071Z,11.10
2019-02-21T14:20:00.778Z,11.95
2019-02-21T14:22:30.530Z,12.68
2019-02-21T14:25:00.487Z,11.88
2019-02-21T14:27:33.387Z,14.55
2019-02-21T14:30:03.011Z,14.50
2019-02-21T14:32:32.722Z,15.32
2019-02-21T14:35:02.477Z,15.10
2019-02-21T14:37:32.283Z,16.27
2019-02-21T14:40:02.181Z,16.62
2019-02-21T14:42:32.166Z,15.03
2019-02-21T14:45:01.941Z,17.23
2019-02-21T14:47:31.937Z,15.70
2019-02-21T14:50:04.503Z,16.65
2019-02-21T14:52:53.092Z,15.03
2019-02-21T14:55:36.962Z,16.55
2019-02-21T14:58:21.267Z,15.63
2019-02-21T15:01:19.599Z,16.62
2019-02-21T15:03:49.217Z,15.80
2019-02-21T15:06:51.547Z,15.65
2019-02-21T15:09:46.485Z,16.00
2019-02-21T15:12:18.051Z,16.17
2019-02-21T15:14:48.083Z,15.53
2019-02-21T15:17:36.337Z,15.85
2019-02-21T15:20:06.112Z,15.58
2019-02-21T15:22:44.862Z,16.62
2019-02-21T15:25:42.188Z,16.17
2019-02-21T15:28:18.860Z,15.58
2019-02-21T15:34:12.941Z,17.32
2019-02-21T15:36:46.359Z,15.35
2019-02-21T15:39:24.676Z,14.18
2019-02-21T15:41:54.770Z,15.78
2019-02-21T15:44:25.335Z,14.50
2019-02-21T15:46:55.780Z,15.93
2019-02-21T15:49:29.269Z,13.55
2019-02-21T15:52:00.602Z,13.75
2019-02-21T15:54:31.055Z,13.68
2019-02-21T15:57:01.575Z,12.55
2019-02-21T15:59:32.283Z,12.85
2019-02-21T16:02:02.476Z,15.32
2019-02-21T16:04:35.631Z,12.35
2019-02-21T16:07:08.643Z,13.70
2019-02-21T16:09:48.169Z,13.90
2019-02-21T16:12:18.594Z,14.65
2019-02-21T16:14:48.737Z,14.25
2019-02-21T16:17:19.581Z,16.87
2019-02-21T16:19:49.410Z,14.87
2019-02-21T16:22:19.503Z,15.90
2019-02-21T16:24:52.562Z,14.18
2019-02-21T16:27:26.565Z,13.85
2019-02-21T16:29:56.566Z,14.90
2019-02-21T16:32:30.926Z,13.62
2019-02-21T16:35:01.059Z,14.05
2019-02-21T16:37:31.232Z,13.98
2019-02-21T16:40:02.210Z,14.60
2019-02-21T16:42:32.208Z,13.48
2019-02-21T16:45:02.214Z,13.48
2019-02-21T16:47:32.093Z,15.98
2019-02-21T16:50:02.094Z,13.22
2019-02-21T16:52:32.534Z,14.38
2019-02-21T16:55:02.477Z,14.50
2019-02-21T16:57:32.673Z,15.00
2019-02-21T17:00:07.140Z,15.98
2019-02-21T17:02:37.103Z,14.85
2019-02-21T17:05:08.756Z,14.98
2019-02-21T17:07:41.697Z,16.10
2019-02-21T17:10:12.111Z,14.50
2019-02-21T17:12:44.955Z,15.50
2019-02-21T17:15:14.999Z,15.72
2019-02-21T17:17:44.944Z,15.00
2019-02-21T17:20:18.162Z,13.93
2019-02-21T17:22:47.873Z,14.80
2019-02-21T17:25:18.042Z,14.10
2019-02-21T17:27:47.858Z,14.10
2019-02-21T17:30:18.126Z,14.33
2019-02-21T17:32:48.254Z,15.28
2019-02-21T17:35:18.463Z,15.83
2019-02-21T17:37:48.415Z,14.05
2019-02-21T17:40:19.652Z,14.07
2019-02-21T17:42:49.716Z,14.70
2019-02-21T17:45:19.638Z,16.62
2019-02-21T17:47:49.432Z,16.65
2019-02-21T17:50:22.095Z,16.97
2019-02-21T17:53:02.669Z,16.62
2019-02-21T17:55:29.983Z,13.53
2019-02-21T17:57:59.861Z,17.37
2019-02-21T18:00:39.314Z,16.75
2019-02-21T18:03:11.983Z,19.40
2019-02-21T18:05:45.115Z,18.77
2019-02-21T18:08:15.150Z,21.55
2019-02-21T18:10:46.831Z,19.60
2019-02-21T18:13:20.126Z,18.55
2019-02-21T18:15:49.987Z,20.05
2019-02-21T18:18:19.896Z,21.02
2019-02-21T18:20:50.306Z,21.52
2019-02-21T18:23:20.185Z,23.15
2019-02-21T18:25:55.290Z,25.30
2019-02-21T18:28:24.923Z,22.35
2019-02-21T18:30:54.557Z,26.23
2019-02-21T18:33:24.313Z,26.15
2019-02-21T18:35:54.637Z,28.20
2019-02-21T18:38:24.584Z,29.15
2019-02-21T18:40:57.931Z,28.57
2019-02-21T18:43:30.200Z,29.48
2019-02-21T18:46:03.034Z,30.45
2019-02-21T18:48:33.488Z,29.07
2019-02-21T19:06:47.526Z,35.20
2019-02-21T19:09:19.415Z,34.08
2019-02-21T19:12:28.669Z,36.08
2019-02-21T19:16:39.260Z,35.92
2019-02-21T19:30:43.471Z,37.75
2019-02-21T19:40:33.397Z,39.00
2019-02-21T19:43:08.704Z,40.38
2019-02-21T19:45:39.004Z,44.90
2019-02-21T19:48:10.834Z,43.25
2019-02-21T19:50:43.650Z,43.30
2019-02-21T19:53:14.563Z,41.00
2019-02-21T19:55:46.398Z,42.05
2019-02-21T19:58:20.634Z,46.63
2019-02-21T20:00:50.644Z,45.15
2019-02-21T20:03:20.556Z,44.58
2019-02-21T20:05:50.907Z,42.15
2019-02-21T20:08:21.854Z,44.53
2019-02-21T20:10:51.772Z,46.60
2019-02-21T20:13:27.767Z,46.48
2019-02-21T20:15:57.774Z,46.77
2019-02-21T20:18:27.661Z,44.80
2019-02-21T20:20:58.498Z,47.20
2019-02-21T20:30:59.976Z,44.40
2019-02-21T20:33:55.817Z,49.53
2019-02-21T20:37:12.598Z,45.28
2019-02-21T20:43:54.390Z,45.52
2019-02-21T21:20:55.074Z,48.65
2019-02-21T21:24:09.584Z,49.77
2019-02-21T21:31:15.239Z,51.75
2019-02-21T21:33:45.162Z,46.63
2019-02-21T21:36:17.698Z,42.80
2019-02-21T21:38:56.650Z,43.73
2019-02-21T21:41:28.826Z,47.48
2019-02-21T21:44:01.609Z,46.05
2019-02-21T21:46:31.924Z,43.87
2019-02-21T21:49:18.068Z,43.15
2019-02-21T21:51:47.929Z,42.40
2019-02-21T21:54:33.666Z,44.58
2019-02-21T21:57:37.694Z,44.77
2019-02-21T22:00:36.994Z,48.40
2019-02-21T22:03:26.817Z,40.55
2019-02-21T22:09:41.601Z,39.15
2019-02-21T22:12:13.278Z,41.55
2019-02-21T22:14:42.926Z,45.00
2019-02-21T22:17:12.594Z,44.42
2019-02-21T22:19:42.266Z,34.03
2019-02-21T22:22:11.886Z,47.17
2019-02-21T22:24:41.435Z,40.83
2019-02-21T22:27:30.515Z,43.60
2019-02-21T22:30:20.675Z,44.25
2019-02-21T22:33:09.891Z,38.80
2019-02-21T22:36:00.593Z,45.73
2019-02-21T22:38:50.336Z,41.23
2019-02-21T22:41:40.465Z,41.95
2019-02-21T22:47:40.136Z,42.70
2019-02-21T22:50:31.452Z,35.08
2019-02-21T22:53:40.638Z,40.23
2019-02-21T22:56:23.327Z,40.30
2019-02-21T22:59:08.368Z,39.88
2019-02-21T23:01:58.956Z,39.55
2019-02-21T23:05:07.141Z,37.55
2019-02-21T23:10:50.716Z,32.20
2019-02-21T23:13:39.751Z,37.95
2019-02-21T23:16:09.989Z,33.50
2019-02-21T23:22:13.066Z,33.48
2019-02-21T23:25:03.802Z,30.95
2019-02-21T23:30:30.202Z,24.90
2019-02-21T23:39:12.387Z,26.80
2019-02-21T23:42:02.782Z,25.55
2019-02-21T23:44:52.639Z,26.42
2019-02-21T23:48:00.774Z,25.23
2019-02-21T23:53:48.175Z,19.65
2019-02-21T23:56:29.488Z,18.15
2019-02-21T23:59:11.124Z,19.42
